Rodeo, CA (94572)

12:24 AM PDT on August 31, 2014 (GMT -0700)
Foxboro Heights | Change Station
CLOSE
Current Station
Personal Weather Station
Location: Hercules, CA
Elevation: 200 ft
Nearby Weather Stations

Elev 200 ft 38.02 °N, 122.26 °W | Updated 4 seconds ago

Clear
Clear
66.4 °F
Feels Like 66.4 °F
N
2.3
Wind Variable Wind from West
Gusts 3.1 mph

Today
High -- | Low -- °F
--% Chance of Precip.
Yesterday
High -- | Low -- °F
Precip. -- in
6:38 AM 7:39 PM
Waxing Crescent, 28% visible
Pressure 29.81 in
Visibility 10.0 miles
Clouds Clear
Dew Point 61 °F
Humidity 83%
Rainfall 0.00 in
Snow Depth Not available.
UV 0 out of 12
Pollen 7.70 out of 12
Ozone Good
PM2.5 Good
Flu Activity Not available.
METAR KCCR 310653Z 17010KT 10SM CLR 20/13 A2985 RMK AO2 SLP093 T02000128

More Conditions Fewer Conditions

Pressure 29.81 in
Visibility 10.0 miles
Clouds Clear
Dew Point 61 °F
Humidity 83%
Rainfall 0.00 in
Snow Depth Not available.
UV 0 out of 12
Pollen 7.70 out of 12
Ozone Good
PM2.5 Good
Flu Activity Not available.
METAR KCCR 310653Z 17010KT 10SM CLR 20/13 A2985 RMK AO2 SLP093 T02000128

More Conditions Fewer Conditions

10-Day Weather Forecast

Almanac

Astronomy

Aug. 31, 2014 Rise Set
Actual Time 6:38 AM PDT 7:39 PM PDT
Civil Twilight 6:11 AM PDT 8:06 PM PDT
Nautical Twilight 5:38 AM PDT 8:38 PM PDT
Astronomical Twilight 5:05 AM PDT 9:12 PM PDT
Moon 12:23 PM PDT 11:04 PM PDT
Length of Visible Light 13h 55m
Length of Day
13h 01m
Tomorrow will be 2m 21s shorter.
Waxing Crescent, 28% of the Moon is Illuminated
Today
Waxing Crescent
Sep 2
First Quarter
Sep 8
Full
Sep 15
Last Quarter
Sep 24
New

Community

WunderPhotos

Upload Photos

1,748,809 photos uploaded!

Nearby

Air Quality

  Air Quality AQ Index Pollutant
Yesterday Good
OZONE
Yesterday Good
PM2.5
Current Good
PM2.5
Current Good
OZONE
Saturday Good
OZONE
Sunday Good
OZONE
Monday Good
OZONE
Tuesday Good
OZONE
Wednesday Good
OZONE

Snow Depth

Station Depth Elevation
Echo Peak 1 in 7800 ft
Forestdale Creek 0 in 8029 ft
Blue Lakes 0 in 8000 ft
Rubicon #2 0 in 7500 ft
Squaw Valley 0 in 8200 ft

Earthquake Activity

City Distance Mag. Time & Date
Gonzales, California 111 miles 2.7 9:48 PM PDT
2014-08-30
Ridgemark, California 106 miles 3.4 4:32 PM PDT
2014-08-29
The Geysers, California 62 miles 2.7 2:53 PM PDT
2014-08-29
Ridgemark, California 106 miles 3.0 2:44 PM PDT
2014-08-29
Minimum magnitude displayed is 2.5.

Coastal Water Temperatures

Place Temperature
San Francisco, CA 66.0 °F
Richmond, CA 68.0 °F
Port Chicago, CA 70.0 °F

Nearby Weather Stations